LTFJ Airport Information

Runway Information
Runway 06 Length 9843 ft width 148 ft
Elevation 293 ft Threshold 0 ft Heading 64
Runway 24 Length 9843 ft Width 148 ft
Elevation 304 ft Threshold 0 ft Heading 244
Airport Frequencies
Type ATIS Name ATIS Frequency 128.55 MHZ
Type GND Name GND Frequency 121.75 MHZ
Type TWR Name TWR Frequency 37.877 MHZ
Type TWR Name TWR Frequency 118.8 MHZ
Airport Navaids
Type NDB Name Sabiha Gokcen Frequency 347 KHZ
Type VOR-DME Name Sabiha Gokcen Frequency 108800 KHZ
Airport Weather Information & NOTAM
ADDS - METARS form results

(2001 UTC 22 July 2018)
 
METAR text: LTFJ 221950Z VRB02KT CAVOK 27/18 Q1009 NOSIG
Conditions at: LTFJ (SABIHA GOKCEN , TR) observed 1950 UTC 22 July 2018
Temperature: 27.0°C (81°F)
Dewpoint: 18.0°C (64°F) [RH = 58%]
Pressure (altimeter): 29.79 inches Hg (1009.0 mb)
Winds: variable direction winds at 2 MPH (2 knots; 1.0 m/s)
Visibility: 6 or more miles (10+ km)
Ceiling: ceiling and visibility are OK
Clouds: unknown
Weather: no significant weather observed at this time

METAR text: LTFJ 221920Z 07001KT CAVOK 26/18 Q1009 NOSIG RMK RWY24 VRB01KT
Conditions at: LTFJ (SABIHA GOKCEN , TR) observed 1920 UTC 22 July 2018
Temperature: 26.0°C (79°F)
Dewpoint: 18.0°C (64°F) [RH = 61%]
Pressure (altimeter): 29.79 inches Hg (1009.0 mb)
Winds: from the ENE (70 degrees) at 1 MPH (1 knots; 0.5 m/s)
Visibility: 6 or more miles (10+ km)
Ceiling: ceiling and visibility are OK
Clouds: unknown
Weather: no significant weather observed at this time